createdAt,value
2018-12-20T00:01:25.123Z,22.20
2018-12-20T00:03:58.827Z,21.70
2018-12-20T00:06:32.784Z,21.50
2018-12-20T00:09:08.050Z,23.07
2018-12-20T00:11:42.408Z,25.40
2018-12-20T00:14:16.529Z,26.67
2018-12-20T00:16:54.151Z,25.67
2018-12-20T00:19:29.888Z,30.80
2018-12-20T00:22:04.266Z,35.23
2018-12-20T00:24:40.181Z,32.90
2018-12-20T00:27:14.060Z,32.27
2018-12-20T00:29:50.149Z,31.37
2018-12-20T00:32:24.011Z,29.77
2018-12-20T00:34:58.578Z,29.83
2018-12-20T00:37:32.703Z,27.63
2018-12-20T00:40:08.101Z,27.70
2018-12-20T00:42:41.891Z,26.70
2018-12-20T00:45:15.988Z,27.50
2018-12-20T00:47:49.800Z,30.27
2018-12-20T00:50:24.289Z,32.73
2018-12-20T00:52:58.952Z,32.70
2018-12-20T00:55:33.881Z,40.73
2018-12-20T00:58:07.601Z,42.53
2018-12-20T01:00:42.148Z,42.00
2018-12-20T01:03:16.318Z,38.85
2018-12-20T01:05:51.080Z,36.45
2018-12-20T01:08:26.447Z,37.17
2018-12-20T01:11:01.844Z,34.83
2018-12-20T01:13:37.171Z,34.67
2018-12-20T01:16:11.453Z,31.00
2018-12-20T01:18:45.991Z,28.80
2018-12-20T01:21:21.563Z,26.07
2018-12-20T01:23:56.894Z,26.43
2018-12-20T01:26:32.472Z,30.33
2018-12-20T01:29:06.731Z,29.23
2018-12-20T01:31:40.706Z,27.33
2018-12-20T01:34:14.974Z,26.10
2018-12-20T01:36:49.002Z,31.43
2018-12-20T01:39:23.192Z,26.73
2018-12-20T01:41:57.469Z,22.77
2018-12-20T01:44:31.431Z,24.00
2018-12-20T01:47:05.733Z,25.43
2018-12-20T01:49:40.694Z,25.50
2018-12-20T01:52:15.692Z,20.40
2018-12-20T01:55:10.350Z,18.67
2018-12-20T01:57:45.598Z,17.30
2018-12-20T02:00:20.160Z,16.77
2018-12-20T02:02:55.542Z,17.37
2018-12-20T02:05:30.093Z,18.93
2018-12-20T02:08:07.036Z,17.00
2018-12-20T02:10:43.064Z,16.97
2018-12-20T02:13:17.285Z,14.87
2018-12-20T02:15:51.604Z,17.70
2018-12-20T02:18:27.472Z,18.53
2018-12-20T02:21:01.211Z,19.27
2018-12-20T02:23:35.942Z,17.90
2018-12-20T02:26:10.602Z,17.30
2018-12-20T02:28:45.540Z,17.10
2018-12-20T02:31:21.859Z,16.37
2018-12-20T02:33:57.299Z,15.20
2018-12-20T02:36:43.634Z,16.43
2018-12-20T02:39:18.366Z,15.85
2018-12-20T02:41:53.119Z,15.27
2018-12-20T02:44:27.316Z,20.80
2018-12-20T02:47:21.258Z,17.02
2018-12-20T02:49:56.706Z,15.93
2018-12-20T02:52:31.891Z,18.57
2018-12-20T02:55:06.027Z,17.83
2018-12-20T02:57:40.009Z,17.80
2018-12-20T03:00:14.033Z,19.47
2018-12-20T03:02:48.313Z,15.23
2018-12-20T03:05:25.327Z,16.50
2018-12-20T03:07:59.603Z,21.80
2018-12-20T03:10:34.438Z,18.73
2018-12-20T03:13:10.106Z,17.97
2018-12-20T03:15:53.316Z,25.13
2018-12-20T03:18:28.579Z,22.40
2018-12-20T03:21:04.510Z,25.47
2018-12-20T03:23:42.312Z,27.03
2018-12-20T03:26:17.537Z,27.90
2018-12-20T03:28:52.544Z,28.47
2018-12-20T03:31:28.429Z,23.83
2018-12-20T03:34:02.780Z,22.03
2018-12-20T03:36:36.974Z,22.85
2018-12-20T03:39:13.348Z,24.33
2018-12-20T03:41:47.860Z,27.47
2018-12-20T03:44:22.373Z,26.62
2018-12-20T03:46:56.598Z,27.03
2018-12-20T03:49:31.181Z,27.13
2018-12-20T03:52:06.135Z,31.57
2018-12-20T03:54:41.042Z,29.87
2018-12-20T03:57:16.163Z,28.87
2018-12-20T03:59:50.592Z,34.30
2018-12-20T04:02:27.521Z,33.33
2018-12-20T04:05:01.570Z,29.52
2018-12-20T04:07:35.418Z,29.83
2018-12-20T04:10:10.999Z,29.80
2018-12-20T04:12:45.406Z,28.52
2018-12-20T04:15:19.875Z,29.85
2018-12-20T04:17:54.188Z,28.93
2018-12-20T04:20:28.872Z,31.00
2018-12-20T04:23:03.064Z,30.35
2018-12-20T04:25:39.390Z,35.38
2018-12-20T04:28:15.894Z,30.77
2018-12-20T04:30:50.175Z,29.57
2018-12-20T04:33:24.541Z,29.80
2018-12-20T04:35:59.652Z,34.30
2018-12-20T04:38:33.845Z,30.97
2018-12-20T04:41:08.468Z,33.95
2018-12-20T04:43:42.120Z,35.13
2018-12-20T04:46:16.300Z,28.90
2018-12-20T04:48:50.775Z,29.52
2018-12-20T04:51:25.175Z,34.58
2018-12-20T04:53:59.489Z,29.15
2018-12-20T04:56:33.238Z,31.15
2018-12-20T04:59:07.812Z,35.70
2018-12-20T05:01:41.407Z,38.98
2018-12-20T05:04:15.458Z,30.97
2018-12-20T05:06:49.973Z,35.13
2018-12-20T05:09:55.770Z,32.75
2018-12-20T05:12:31.607Z,30.85
2018-12-20T05:15:13.540Z,33.38
2018-12-20T05:17:47.382Z,31.87
2018-12-20T05:20:21.757Z,32.05
2018-12-20T05:22:55.774Z,30.67
2018-12-20T05:25:30.181Z,30.15
2018-12-20T05:28:04.149Z,31.52
2018-12-20T05:30:38.864Z,30.75
2018-12-20T05:33:12.648Z,26.90
2018-12-20T05:35:46.895Z,29.80
2018-12-20T05:38:21.403Z,38.65
2018-12-20T05:40:55.669Z,48.23
2018-12-20T05:43:31.211Z,38.48
2018-12-20T05:46:06.333Z,38.08
2018-12-20T05:49:12.929Z,38.55
2018-12-20T05:51:47.658Z,41.75
2018-12-20T05:54:53.846Z,35.20
2018-12-20T05:57:28.598Z,44.00
2018-12-20T06:00:02.657Z,34.67
2018-12-20T06:02:37.819Z,30.70
2018-12-20T06:05:16.311Z,35.85
2018-12-20T06:07:50.656Z,33.85
2018-12-20T06:10:25.935Z,28.92
2018-12-20T06:13:33.850Z,28.13
2018-12-20T06:16:13.072Z,34.27
2018-12-20T06:21:26.208Z,23.07
2018-12-20T06:23:59.814Z,32.73
2018-12-20T06:26:33.659Z,25.20
2018-12-20T06:29:09.267Z,25.00
2018-12-20T06:36:44.693Z,25.37
2018-12-20T06:39:18.668Z,21.70
2018-12-20T06:41:52.416Z,18.75
2018-12-20T06:44:58.410Z,22.25
2018-12-20T06:47:32.855Z,22.82
2018-12-20T06:50:07.837Z,24.23
2018-12-20T06:52:41.901Z,24.55
2018-12-20T06:55:15.704Z,25.70
2018-12-20T06:57:49.327Z,27.25
2018-12-20T07:00:24.927Z,28.80
2018-12-20T07:03:00.559Z,27.65
2018-12-20T07:05:35.498Z,30.48
2018-12-20T07:08:09.531Z,30.05
2018-12-20T07:10:44.288Z,34.08
2018-12-20T07:13:50.884Z,33.33
2018-12-20T07:16:29.419Z,33.75
2018-12-20T07:19:02.348Z,33.27
2018-12-20T07:21:36.732Z,30.68
2018-12-20T07:24:11.137Z,33.83
2018-12-20T07:26:45.283Z,31.85
2018-12-20T07:29:19.978Z,32.88
2018-12-20T07:31:54.177Z,32.00
2018-12-20T07:34:28.035Z,31.02
2018-12-20T07:37:33.695Z,31.73
2018-12-20T07:40:08.590Z,32.80
2018-12-20T07:43:15.309Z,34.83
2018-12-20T07:45:50.648Z,35.28
2018-12-20T07:48:57.821Z,30.72
2018-12-20T07:51:32.331Z,33.53
2018-12-20T07:54:06.260Z,34.30
2018-12-20T07:56:40.545Z,36.30
2018-12-20T07:59:14.777Z,40.20
2018-12-20T08:02:13.074Z,41.70
2018-12-20T08:04:47.066Z,63.90
2018-12-20T08:07:22.181Z,66.50
2018-12-20T08:09:56.163Z,58.95
2018-12-20T08:12:42.473Z,59.57
2018-12-20T08:15:16.720Z,63.33
2018-12-20T08:17:58.576Z,60.85
2018-12-20T08:20:35.802Z,58.45
2018-12-20T08:23:11.342Z,65.40
2018-12-20T08:25:48.301Z,68.90
2018-12-20T08:28:22.397Z,61.33
2018-12-20T08:30:56.274Z,63.87
2018-12-20T08:33:31.141Z,64.10
2018-12-20T08:36:05.984Z,59.30
2018-12-20T08:38:40.907Z,58.30
2018-12-20T08:41:14.836Z,57.05
2018-12-20T08:43:48.930Z,52.50
2018-12-20T08:46:22.582Z,44.08
2018-12-20T08:48:57.248Z,42.13
2018-12-20T08:51:32.572Z,41.53
2018-12-20T08:54:06.815Z,42.85
2018-12-20T08:56:41.147Z,43.30
2018-12-20T08:59:14.927Z,53.00
2018-12-20T09:01:49.490Z,42.13
2018-12-20T09:04:23.552Z,39.13
2018-12-20T09:06:57.917Z,43.95
2018-12-20T09:09:33.324Z,39.37
2018-12-20T09:12:07.305Z,38.88
2018-12-20T09:14:41.231Z,39.08
2018-12-20T09:17:17.821Z,36.30
2018-12-20T09:19:52.069Z,31.50
2018-12-20T09:22:27.215Z,40.48
2018-12-20T09:25:01.029Z,40.43
2018-12-20T09:27:34.997Z,34.78
2018-12-20T09:30:09.055Z,35.55
2018-12-20T09:32:43.170Z,32.98
2018-12-20T09:35:18.222Z,39.60
2018-12-20T09:37:52.487Z,41.25
2018-12-20T09:40:27.151Z,44.13
2018-12-20T09:43:13.191Z,44.70
2018-12-20T09:45:47.153Z,46.23
2018-12-20T09:48:23.248Z,40.88
2018-12-20T09:53:41.968Z,36.73
2018-12-20T09:56:15.742Z,38.78
2018-12-20T09:59:02.008Z,38.63
2018-12-20T10:01:36.141Z,43.98
2018-12-20T10:04:09.971Z,43.58
2018-12-20T10:06:44.077Z,44.58
2018-12-20T10:09:17.859Z,45.55
2018-12-20T10:11:52.578Z,47.53
2018-12-20T10:14:27.028Z,51.55
2018-12-20T10:17:01.650Z,48.90
2018-12-20T10:19:36.505Z,48.00
2018-12-20T10:22:12.139Z,47.48
2018-12-20T10:24:46.840Z,48.13
2018-12-20T10:27:22.224Z,56.45
2018-12-20T10:29:56.892Z,50.43
2018-12-20T10:32:31.867Z,52.70
2018-12-20T10:35:06.982Z,56.13
2018-12-20T10:37:43.348Z,55.77
2018-12-20T10:40:17.710Z,57.30
2018-12-20T10:42:52.202Z,59.77
2018-12-20T10:45:28.170Z,62.73
2018-12-20T10:48:02.693Z,63.47
2018-12-20T10:50:38.358Z,63.13
2018-12-20T10:53:13.617Z,61.85
2018-12-20T10:55:48.959Z,66.90
2018-12-20T10:58:24.420Z,70.50
2018-12-20T11:01:03.001Z,74.90
2018-12-20T11:03:42.105Z,69.15
2018-12-20T11:06:21.030Z,70.73
2018-12-20T11:09:34.360Z,70.62
2018-12-20T11:12:11.502Z,73.07
2018-12-20T11:14:46.051Z,75.83
2018-12-20T11:17:22.014Z,72.23
2018-12-20T11:19:57.461Z,78.53
2018-12-20T11:22:33.520Z,87.57
2018-12-20T11:25:08.444Z,90.37
2018-12-20T11:27:57.768Z,87.20
2018-12-20T11:30:35.441Z,84.10
2018-12-20T11:33:12.024Z,80.17
2018-12-20T11:35:47.024Z,90.87
2018-12-20T11:38:23.909Z,217.40
2018-12-20T11:41:00.318Z,147.00
2018-12-20T11:44:06.228Z,157.62
2018-12-20T11:47:12.487Z,160.07
2018-12-20T11:50:10.150Z,133.27
2018-12-20T11:52:45.898Z,102.37
2018-12-20T11:55:21.552Z,103.10
2018-12-20T11:57:57.162Z,114.80
2018-12-20T12:00:37.940Z,115.92
2018-12-20T12:03:14.048Z,100.93
2018-12-20T12:05:49.877Z,111.50
2018-12-20T12:08:24.270Z,109.73
2018-12-20T12:10:59.503Z,89.97
2018-12-20T12:13:35.878Z,85.30
2018-12-20T12:16:10.336Z,84.80
2018-12-20T12:18:45.009Z,85.83
2018-12-20T12:21:19.840Z,84.23
2018-12-20T12:24:11.103Z,83.33
2018-12-20T12:26:45.471Z,87.10
2018-12-20T12:29:21.235Z,85.57
2018-12-20T12:32:19.831Z,83.47
2018-12-20T12:34:54.300Z,79.13
2018-12-20T12:37:30.435Z,84.80
2018-12-20T12:40:05.493Z,99.07
2018-12-20T12:42:41.490Z,86.40
2018-12-20T12:45:17.910Z,83.17
2018-12-20T12:48:25.200Z,76.13
2018-12-20T12:51:00.111Z,66.83
2018-12-20T12:54:00.551Z,70.67
2018-12-20T12:56:36.199Z,73.93
2018-12-20T12:59:10.797Z,76.03
2018-12-20T13:01:45.723Z,75.67
2018-12-20T13:04:51.794Z,70.03
2018-12-20T13:07:58.112Z,73.60
2018-12-20T13:10:34.238Z,81.25
2018-12-20T13:13:09.300Z,80.73
2018-12-20T13:15:43.947Z,81.97
2018-12-20T13:18:18.851Z,83.13
2018-12-20T13:20:53.118Z,78.83
2018-12-20T13:23:28.250Z,82.83
2018-12-20T13:26:03.950Z,83.40
2018-12-20T13:28:37.995Z,85.83
2018-12-20T13:31:13.264Z,83.17
2018-12-20T13:33:48.817Z,88.17
2018-12-20T13:36:22.871Z,89.43
2018-12-20T13:38:57.687Z,82.43
2018-12-20T13:41:34.500Z,80.70
2018-12-20T13:44:09.990Z,82.77
2018-12-20T13:46:44.705Z,85.90
2018-12-20T13:49:19.097Z,81.90
2018-12-20T13:51:52.911Z,81.27
2018-12-20T13:54:52.142Z,85.20
2018-12-20T13:57:26.326Z,87.57
2018-12-20T14:00:00.783Z,90.90
2018-12-20T14:02:35.032Z,88.33
2018-12-20T14:05:10.814Z,91.50
2018-12-20T14:07:46.010Z,86.13
2018-12-20T14:10:20.305Z,84.97
2018-12-20T14:12:54.353Z,85.07
2018-12-20T14:15:28.583Z,87.33
2018-12-20T14:18:03.768Z,80.47
2018-12-20T14:20:38.192Z,84.67
2018-12-20T14:23:16.460Z,82.47
2018-12-20T14:25:50.892Z,81.03
2018-12-20T14:28:24.279Z,78.40
2018-12-20T14:30:59.276Z,82.47
2018-12-20T14:33:34.245Z,83.47
2018-12-20T14:36:10.173Z,79.83
2018-12-20T14:38:45.644Z,76.93
2018-12-20T14:41:21.366Z,78.00
2018-12-20T14:43:55.544Z,80.17
2018-12-20T14:46:30.252Z,78.23
2018-12-20T14:49:04.266Z,78.87
2018-12-20T14:51:39.314Z,79.43
2018-12-20T14:54:21.580Z,79.70
2018-12-20T14:56:59.734Z,82.90
2018-12-20T14:59:33.916Z,78.87
2018-12-20T15:02:08.059Z,85.13
2018-12-20T15:04:42.276Z,84.20
2018-12-20T15:07:16.739Z,86.47
2018-12-20T15:10:07.583Z,84.63
2018-12-20T15:12:41.499Z,77.47
2018-12-20T15:15:15.874Z,86.30
2018-12-20T15:17:51.002Z,87.40
2018-12-20T15:20:24.919Z,90.20
2018-12-20T15:22:59.971Z,102.43
2018-12-20T15:25:34.186Z,102.60
2018-12-20T15:28:09.789Z,105.90
2018-12-20T15:30:44.068Z,104.00
2018-12-20T15:33:29.118Z,113.03
2018-12-20T15:36:03.133Z,112.70
2018-12-20T15:38:36.764Z,112.83
2018-12-20T15:41:10.763Z,111.50
2018-12-20T15:43:44.605Z,109.40
2018-12-20T15:46:19.206Z,105.27
2018-12-20T15:48:56.422Z,109.97
2018-12-20T15:51:31.185Z,106.63
2018-12-20T15:54:05.098Z,107.77
2018-12-20T15:56:39.604Z,108.57
2018-12-20T15:59:13.913Z,112.57
2018-12-20T16:01:47.996Z,112.07
2018-12-20T16:04:22.463Z,114.37
2018-12-20T16:06:56.372Z,115.17
2018-12-20T16:09:34.756Z,113.07
2018-12-20T16:12:08.569Z,120.87
2018-12-20T16:14:43.238Z,113.40
2018-12-20T16:17:16.979Z,122.57
2018-12-20T16:19:51.251Z,117.50
2018-12-20T16:22:25.346Z,116.07
2018-12-20T16:25:00.047Z,110.03
2018-12-20T16:27:34.149Z,119.93
2018-12-20T16:30:08.346Z,117.63
2018-12-20T16:32:42.171Z,115.67
2018-12-20T16:35:17.083Z,105.43
2018-12-20T16:37:59.026Z,105.37
2018-12-20T16:40:32.669Z,116.97
2018-12-20T16:43:06.218Z,121.20
2018-12-20T16:45:41.108Z,120.33
2018-12-20T16:48:18.546Z,116.90
2018-12-20T16:50:52.715Z,111.23
2018-12-20T16:53:26.802Z,115.63
2018-12-20T16:56:02.125Z,114.57
2018-12-20T16:58:37.293Z,115.83
2018-12-20T17:01:11.344Z,119.27
2018-12-20T17:03:45.191Z,117.97
2018-12-20T17:06:19.073Z,120.20
2018-12-20T17:08:52.940Z,120.33
2018-12-20T17:11:27.038Z,117.67
2018-12-20T17:14:01.093Z,120.70
2018-12-20T17:16:34.971Z,123.07
2018-12-20T17:19:08.797Z,121.27
2018-12-20T17:21:43.404Z,120.93
2018-12-20T17:24:17.272Z,111.87
2018-12-20T17:26:52.588Z,119.30
2018-12-20T17:29:26.901Z,115.60
2018-12-20T17:32:00.644Z,112.17
2018-12-20T17:34:35.794Z,102.43
2018-12-20T17:37:42.142Z,97.80
2018-12-20T17:40:17.169Z,99.63
2018-12-20T17:42:51.016Z,102.37
2018-12-20T17:45:25.216Z,95.77
2018-12-20T17:48:00.287Z,98.83
2018-12-20T17:50:35.932Z,103.60
2018-12-20T17:53:10.116Z,93.55
2018-12-20T17:55:44.892Z,96.15
2018-12-20T17:58:19.093Z,89.17
2018-12-20T18:00:53.497Z,90.67
2018-12-20T18:03:28.168Z,85.37
2018-12-20T18:06:02.008Z,85.77
2018-12-20T18:08:36.028Z,82.27
2018-12-20T18:11:10.338Z,86.47
2018-12-20T18:13:46.776Z,88.13
2018-12-20T18:16:21.118Z,82.73
2018-12-20T18:18:55.061Z,86.93
2018-12-20T18:21:35.489Z,84.17
2018-12-20T18:24:11.242Z,81.33
2018-12-20T18:26:45.320Z,84.27
2018-12-20T18:29:19.196Z,86.93
2018-12-20T18:31:56.581Z,87.93
2018-12-20T18:34:31.471Z,85.37
2018-12-20T18:37:05.817Z,84.70
2018-12-20T18:39:39.989Z,88.00
2018-12-20T18:42:14.645Z,85.73
2018-12-20T18:44:51.065Z,80.43
2018-12-20T18:47:26.475Z,78.87
2018-12-20T18:50:00.116Z,76.00
2018-12-20T18:52:35.081Z,77.33
2018-12-20T18:55:08.806Z,77.30
2018-12-20T18:57:42.709Z,78.30
2018-12-20T19:00:16.584Z,71.50
2018-12-20T19:02:51.027Z,70.80
2018-12-20T19:05:25.664Z,74.90
2018-12-20T19:07:59.845Z,71.67
2018-12-20T19:10:33.451Z,67.40
2018-12-20T19:13:07.780Z,67.43
2018-12-20T19:15:41.562Z,68.70
2018-12-20T19:18:15.518Z,72.90
2018-12-20T19:20:52.086Z,70.20
2018-12-20T19:23:26.291Z,66.07
2018-12-20T19:26:00.736Z,66.00
2018-12-20T19:28:34.931Z,67.27
2018-12-20T19:31:08.784Z,64.90
2018-12-20T19:33:42.883Z,66.10
2018-12-20T19:36:18.346Z,62.93
2018-12-20T19:39:05.616Z,62.73
2018-12-20T19:41:39.419Z,60.50
2018-12-20T19:44:13.438Z,62.53
2018-12-20T19:46:48.983Z,61.83
2018-12-20T19:49:24.684Z,62.30
2018-12-20T19:51:58.911Z,62.80
2018-12-20T19:54:34.899Z,64.90
2018-12-20T19:57:40.929Z,66.27
2018-12-20T20:00:17.865Z,60.70
2018-12-20T20:02:52.243Z,64.37
2018-12-20T20:05:27.306Z,65.37
2018-12-20T20:08:01.231Z,61.53
2018-12-20T20:10:36.534Z,61.53
2018-12-20T20:13:42.384Z,59.17
2018-12-20T20:16:16.562Z,57.27
2018-12-20T20:19:21.075Z,60.83
2018-12-20T20:21:58.449Z,59.87
2018-12-20T20:24:35.195Z,62.73
2018-12-20T20:27:12.890Z,61.70
2018-12-20T20:29:47.439Z,60.10
2018-12-20T20:32:22.052Z,61.77
2018-12-20T20:34:58.819Z,63.50
2018-12-20T20:37:32.740Z,61.87
2018-12-20T20:40:08.023Z,65.43
2018-12-20T20:42:41.946Z,64.67
2018-12-20T20:45:16.424Z,66.87
2018-12-20T20:47:50.680Z,68.60
2018-12-20T20:50:25.026Z,65.03
2018-12-20T20:52:58.807Z,70.57
2018-12-20T20:55:33.157Z,67.57
2018-12-20T20:58:08.664Z,69.43
2018-12-20T21:00:43.244Z,64.20
2018-12-20T21:03:17.508Z,68.62
2018-12-20T21:05:51.589Z,65.35
2018-12-20T21:08:26.147Z,63.93
2018-12-20T21:11:00.179Z,64.13
2018-12-20T21:13:35.147Z,62.97
2018-12-20T21:16:09.459Z,63.07
2018-12-20T21:18:43.362Z,68.57
2018-12-20T21:21:18.167Z,64.73
2018-12-20T21:23:53.357Z,66.03
2018-12-20T21:26:27.534Z,65.37
2018-12-20T21:29:02.113Z,64.13
2018-12-20T21:31:35.871Z,62.63
2018-12-20T21:34:10.070Z,64.67
2018-12-20T21:36:44.495Z,62.40
2018-12-20T21:39:19.645Z,66.83
2018-12-20T21:41:53.917Z,64.47
2018-12-20T21:44:59.418Z,61.30
2018-12-20T21:47:33.723Z,60.13
2018-12-20T21:50:08.899Z,63.43
2018-12-20T21:52:43.481Z,60.70
2018-12-20T21:55:17.580Z,60.97
2018-12-20T21:57:52.689Z,56.53
2018-12-20T22:00:26.979Z,62.90
2018-12-20T22:03:01.504Z,60.43
2018-12-20T22:05:35.520Z,59.60
2018-12-20T22:08:09.843Z,58.73
2018-12-20T22:10:45.110Z,59.00
2018-12-20T22:13:22.040Z,59.20
2018-12-20T22:15:55.999Z,54.70
2018-12-20T22:18:30.178Z,54.83
2018-12-20T22:21:04.637Z,54.40
2018-12-20T22:23:40.809Z,53.90
2018-12-20T22:26:15.792Z,53.43
2018-12-20T22:28:56.942Z,52.40
2018-12-20T22:31:31.982Z,52.80
2018-12-20T22:34:06.061Z,51.87
2018-12-20T22:36:56.244Z,49.63
2018-12-20T22:39:30.351Z,49.07
2018-12-20T22:42:04.552Z,50.37
2018-12-20T22:44:38.746Z,51.07
2018-12-20T22:47:12.841Z,50.07
2018-12-20T22:50:06.714Z,47.90
2018-12-20T22:52:40.513Z,48.53
2018-12-20T22:55:14.702Z,46.27
2018-12-20T22:57:49.872Z,46.30
2018-12-20T23:00:24.349Z,45.37
2018-12-20T23:02:58.538Z,46.90
2018-12-20T23:05:32.840Z,46.20
2018-12-20T23:08:06.713Z,43.00
2018-12-20T23:10:40.933Z,45.63
2018-12-20T23:13:14.727Z,44.47
2018-12-20T23:15:49.226Z,47.40
2018-12-20T23:18:23.561Z,44.17
2018-12-20T23:21:04.908Z,46.70
2018-12-20T23:23:34.366Z,46.23
2018-12-20T23:26:08.350Z,46.23
2018-12-20T23:28:42.734Z,45.93
2018-12-20T23:31:17.191Z,48.80
2018-12-20T23:33:52.240Z,46.17
2018-12-20T23:36:26.160Z,45.13
2018-12-20T23:39:00.287Z,43.17
2018-12-20T23:41:35.226Z,47.93
2018-12-20T23:44:09.174Z,46.00
2018-12-20T23:46:43.536Z,45.30
2018-12-20T23:49:17.659Z,42.90
2018-12-20T23:51:51.742Z,45.40
2018-12-20T23:54:25.949Z,45.90
2018-12-20T23:56:59.936Z,44.73
2018-12-20T23:59:34.393Z,47.37
